Archival Weather

Republic

Farmingdale, New York (KFRG)

Report from: Wednesday, February 7, 2024 8:53 AM EST
Current time: Monday, June 24, 2024 5:38 AM EDT

Current weather – Weather history – Daily summaries
Weather forecast

Temperature2.2°C (36.0°F)
Wind chill-1.7°C (29.0°F)
Dew point-3.9°C (25.0°F)
Winds 8 kts (4.1 m/s, 9.2 mph) North (10°)
Visibility10 mi. (16.1 km)
Clouds Sky clear
Altimeter30.32 in.Hg (1027 mB)
Relative humidity64 %
Density altitude-1,941 ft. (-592 m)
Sea-level pressure102.7 kPa (1027 mB, 30.32 in.Hg)
Remarks Automated weather observing station without precipitation discriminator
Flight conditions Visual Meteorological Conditions
Raw dataKFRG 071353Z 01008KT 10SM CLR 02/M04 A3032 RMK AO1 SLP267 T00221039
An error has occurred. This application may no longer respond until reloaded. Reload 🗙